createdAt,value
2022-09-06T00:01:00.300Z,3.76
2022-09-06T00:03:28.801Z,4.00
2022-09-06T00:05:56.000Z,4.08
2022-09-06T00:08:23.172Z,3.80
2022-09-06T00:11:00.895Z,3.90
2022-09-06T00:13:28.720Z,4.01
2022-09-06T00:15:56.148Z,3.88
2022-09-06T00:18:23.509Z,3.63
2022-09-06T00:20:52.160Z,3.91
2022-09-06T00:23:19.281Z,3.97
2022-09-06T00:25:46.439Z,3.54
2022-09-06T00:28:13.538Z,3.64
2022-09-06T00:30:40.720Z,3.44
2022-09-06T00:33:07.980Z,3.80
2022-09-06T00:35:35.058Z,3.83
2022-09-06T00:38:03.699Z,3.83
2022-09-06T00:40:34.459Z,3.30
2022-09-06T00:43:01.620Z,3.72
2022-09-06T00:45:31.099Z,3.44
2022-09-06T00:48:01.520Z,3.58
2022-09-06T00:50:29.779Z,3.53
2022-09-06T00:52:56.965Z,3.58
2022-09-06T00:55:25.690Z,3.72
2022-09-06T00:57:53.748Z,3.96
2022-09-06T01:00:21.312Z,3.73
2022-09-06T01:02:49.834Z,3.68
2022-09-06T01:05:18.442Z,4.10
2022-09-06T01:08:03.017Z,3.67
2022-09-06T01:10:55.579Z,3.63
2022-09-06T01:13:37.631Z,3.90
2022-09-06T01:16:13.069Z,3.85
2022-09-06T01:19:02.494Z,4.27
2022-09-06T01:21:44.961Z,3.97
2022-09-06T01:24:42.065Z,3.62
2022-09-06T01:27:53.612Z,4.01
2022-09-06T01:30:24.445Z,4.05
2022-09-06T01:32:59.927Z,3.65
2022-09-06T01:35:34.153Z,4.00
2022-09-06T01:38:03.427Z,3.74
2022-09-06T01:40:30.561Z,3.58
2022-09-06T01:42:58.825Z,3.45
2022-09-06T01:45:40.740Z,3.89
2022-09-06T01:48:18.199Z,3.80
2022-09-06T01:51:01.270Z,4.13
2022-09-06T01:53:58.301Z,3.74
2022-09-06T01:56:38.472Z,4.07
2022-09-06T01:59:28.623Z,3.95
2022-09-06T02:02:07.316Z,4.42
2022-09-06T02:04:45.109Z,4.03
2022-09-06T02:07:20.363Z,3.74
2022-09-06T02:09:54.800Z,3.80
2022-09-06T02:12:25.431Z,3.93
2022-09-06T02:14:58.587Z,3.97
2022-09-06T02:17:32.519Z,3.72
2022-09-06T02:20:06.510Z,4.08
2022-09-06T02:22:40.078Z,4.04
2022-09-06T02:25:12.804Z,3.84
2022-09-06T02:27:40.564Z,3.54
2022-09-06T02:30:08.925Z,4.02
2022-09-06T02:32:43.523Z,4.19
2022-09-06T02:35:16.422Z,3.56
2022-09-06T02:37:44.478Z,3.80
2022-09-06T02:40:12.833Z,3.71
2022-09-06T02:42:40.840Z,3.84
2022-09-06T02:45:09.179Z,3.66
2022-09-06T02:47:37.794Z,3.94
2022-09-06T02:50:05.310Z,3.96
2022-09-06T02:52:32.374Z,4.01
2022-09-06T02:54:59.500Z,4.18
2022-09-06T02:57:26.579Z,4.02
2022-09-06T02:59:53.719Z,4.43
2022-09-06T03:02:20.851Z,4.25
2022-09-06T03:04:49.510Z,4.51
2022-09-06T03:07:16.661Z,4.44
2022-09-06T03:09:43.821Z,4.21
2022-09-06T03:12:10.920Z,4.56
2022-09-06T03:14:38.060Z,4.63
2022-09-06T03:17:05.351Z,4.28
2022-09-06T03:19:32.499Z,3.92
2022-09-06T03:22:01.022Z,4.15
2022-09-06T03:24:28.071Z,4.30
2022-09-06T03:26:55.199Z,4.54
2022-09-06T03:29:22.320Z,4.47
2022-09-06T03:31:49.461Z,4.51
2022-09-06T03:34:16.547Z,4.30
2022-09-06T03:36:43.719Z,4.26
2022-09-06T03:39:12.266Z,3.97
2022-09-06T03:41:39.345Z,4.20
2022-09-06T03:44:06.462Z,4.08
2022-09-06T03:46:33.599Z,3.57
2022-09-06T03:49:00.799Z,3.75
2022-09-06T03:51:28.118Z,3.82
2022-09-06T03:53:55.282Z,3.47
2022-09-06T03:56:23.820Z,3.64
2022-09-06T03:58:50.945Z,3.85
2022-09-06T04:01:18.075Z,3.67
2022-09-06T04:03:45.289Z,3.52
2022-09-06T04:06:12.498Z,3.50
2022-09-06T04:08:39.999Z,3.77
2022-09-06T04:11:07.641Z,4.02
2022-09-06T04:13:37.602Z,3.72
2022-09-06T04:16:05.935Z,3.71
2022-09-06T04:18:33.817Z,3.44
2022-09-06T04:21:01.081Z,3.54
2022-09-06T04:23:29.868Z,3.45
2022-09-06T04:25:58.807Z,3.86
2022-09-06T04:28:26.746Z,3.95
2022-09-06T04:31:00.795Z,3.70
2022-09-06T04:33:32.671Z,3.58
2022-09-06T04:36:02.862Z,3.75
2022-09-06T04:38:34.789Z,3.72
2022-09-06T04:41:02.019Z,3.58
2022-09-06T04:43:29.142Z,3.65
2022-09-06T04:46:03.410Z,3.49
2022-09-06T04:48:30.579Z,3.75
2022-09-06T04:50:57.678Z,4.43
2022-09-06T04:53:24.884Z,4.65
2022-09-06T04:55:52.075Z,5.13
2022-09-06T04:58:19.271Z,5.50
2022-09-06T05:00:46.395Z,5.86
2022-09-06T05:03:14.964Z,5.55
2022-09-06T05:05:42.109Z,5.42
2022-09-06T05:08:09.363Z,5.67
2022-09-06T05:10:36.469Z,4.92
2022-09-06T05:13:03.719Z,4.80
2022-09-06T05:15:30.801Z,4.65
2022-09-06T05:18:02.907Z,4.50
2022-09-06T05:20:31.781Z,4.64
2022-09-06T05:22:58.917Z,4.80
2022-09-06T05:25:26.108Z,4.53
2022-09-06T05:27:53.172Z,4.29
2022-09-06T05:30:20.271Z,4.36
2022-09-06T05:32:47.363Z,4.31
2022-09-06T05:35:14.687Z,4.13
2022-09-06T05:37:43.205Z,4.28
2022-09-06T05:40:10.979Z,3.90
2022-09-06T05:42:38.162Z,3.77
2022-09-06T05:45:06.519Z,4.00
2022-09-06T05:47:33.577Z,3.99
2022-09-06T05:50:00.741Z,3.85
2022-09-06T05:52:28.302Z,3.91
2022-09-06T05:54:56.798Z,4.26
2022-09-06T05:57:24.421Z,4.18
2022-09-06T05:59:51.532Z,4.46
2022-09-06T06:02:18.835Z,4.14
2022-09-06T06:04:46.466Z,4.37
2022-09-06T06:07:13.841Z,4.10
2022-09-06T06:09:41.704Z,4.55
2022-09-06T06:12:10.749Z,4.40
2022-09-06T06:14:37.841Z,4.46
2022-09-06T06:17:04.982Z,4.66
2022-09-06T06:19:32.077Z,4.59
2022-09-06T06:21:59.158Z,4.61
2022-09-06T06:24:26.240Z,4.85
2022-09-06T06:26:53.546Z,4.95
2022-09-06T06:29:22.079Z,4.59
2022-09-06T06:31:49.297Z,4.54
2022-09-06T06:34:16.363Z,4.73
2022-09-06T06:36:43.453Z,4.25
2022-09-06T06:39:10.683Z,3.90
2022-09-06T06:41:37.817Z,6.24
2022-09-06T06:44:06.282Z,4.14
2022-09-06T06:46:37.319Z,3.84
2022-09-06T06:49:05.071Z,3.70
2022-09-06T06:51:33.789Z,3.28
2022-09-06T06:54:00.870Z,3.74
2022-09-06T06:56:30.050Z,3.41
2022-09-06T06:58:59.574Z,3.44
2022-09-06T07:01:29.379Z,3.39
2022-09-06T07:03:58.858Z,3.39
2022-09-06T07:09:13.228Z,3.28
2022-09-06T07:11:40.327Z,3.36
2022-09-06T07:14:07.448Z,3.60
2022-09-06T07:16:34.753Z,3.46
2022-09-06T07:19:03.977Z,3.70
2022-09-06T07:26:35.469Z,3.16
2022-09-06T07:29:04.675Z,3.35
2022-09-06T07:34:20.711Z,3.51
2022-09-06T07:36:48.500Z,3.44
2022-09-06T07:39:15.791Z,3.71
2022-09-06T07:41:43.690Z,3.35
2022-09-06T07:44:10.899Z,3.65
2022-09-06T07:46:38.120Z,3.72
2022-09-06T07:49:06.595Z,3.35
2022-09-06T07:51:35.149Z,3.27
2022-09-06T07:54:26.348Z,3.56
2022-09-06T07:56:49.550Z,3.80
2022-09-06T07:59:16.784Z,3.62
2022-09-06T08:01:43.994Z,3.70
2022-09-06T08:04:12.916Z,3.60
2022-09-06T08:09:32.839Z,3.37
2022-09-06T08:12:00.333Z,3.91
2022-09-06T08:14:27.529Z,3.93
2022-09-06T08:16:54.690Z,3.80
2022-09-06T08:19:21.785Z,3.89
2022-09-06T08:21:50.326Z,4.21
2022-09-06T08:24:17.467Z,4.17
2022-09-06T08:26:44.568Z,3.95
2022-09-06T08:29:12.895Z,4.04
2022-09-06T08:31:42.234Z,4.06
2022-09-06T08:34:09.684Z,4.11
2022-09-06T08:36:36.988Z,3.75
2022-09-06T08:39:08.446Z,4.07
2022-09-06T08:41:47.704Z,3.77
2022-09-06T08:47:10.306Z,4.26
2022-09-06T08:49:42.646Z,3.69
2022-09-06T08:52:49.467Z,3.23
2022-09-06T08:55:36.808Z,3.16
2022-09-06T08:58:29.758Z,2.86
2022-09-06T09:01:03.820Z,3.08
2022-09-06T09:03:34.985Z,3.09
2022-09-06T09:06:03.434Z,2.96
2022-09-06T09:08:41.225Z,2.70
2022-09-06T09:11:17.112Z,2.64
2022-09-06T09:13:55.880Z,2.76
2022-09-06T09:16:24.139Z,2.76
2022-09-06T09:18:55.726Z,1.92
2022-09-06T09:21:30.393Z,2.45
2022-09-06T09:24:05.006Z,2.66
2022-09-06T09:26:44.429Z,2.91
2022-09-06T09:29:13.709Z,3.04
2022-09-06T09:31:48.782Z,3.02
2022-09-06T09:34:30.167Z,2.63
2022-09-06T09:40:06.002Z,2.94
2022-09-06T09:42:37.577Z,2.91
2022-09-06T09:45:26.167Z,3.12
2022-09-06T09:47:53.967Z,3.14
2022-09-06T09:50:26.186Z,3.14
2022-09-06T09:52:53.807Z,3.10
2022-09-06T09:55:25.185Z,3.08
2022-09-06T09:57:55.067Z,2.92
2022-09-06T10:00:37.687Z,3.19
2022-09-06T10:03:13.280Z,3.30
2022-09-06T10:05:42.009Z,2.95
2022-09-06T10:08:12.967Z,3.44
2022-09-06T10:10:42.568Z,3.68
2022-09-06T10:13:20.308Z,3.80
2022-09-06T10:15:50.166Z,4.09
2022-09-06T10:18:29.151Z,4.06
2022-09-06T10:21:01.399Z,3.43
2022-09-06T10:26:50.646Z,4.07
2022-09-06T10:29:34.086Z,4.06
2022-09-06T10:32:18.987Z,4.53
2022-09-06T10:35:05.688Z,4.02
2022-09-06T10:37:55.167Z,4.33
2022-09-06T10:40:33.628Z,3.56
2022-09-06T10:43:03.506Z,3.90
2022-09-06T10:45:46.026Z,3.85
2022-09-06T10:48:21.589Z,3.94
2022-09-06T10:50:56.808Z,3.43
2022-09-06T10:53:47.488Z,3.86
2022-09-06T10:56:23.408Z,3.31
2022-09-06T11:02:02.255Z,3.54
2022-09-06T11:07:30.173Z,3.24
2022-09-06T11:10:03.131Z,3.48
2022-09-06T11:12:39.447Z,4.12
2022-09-06T11:15:10.685Z,3.47
2022-09-06T11:17:51.447Z,4.14
2022-09-06T11:20:32.002Z,4.50
2022-09-06T11:23:35.065Z,4.57
2022-09-06T11:26:32.513Z,5.00
2022-09-06T11:29:03.369Z,4.31
2022-09-06T11:34:25.786Z,3.87
2022-09-06T11:36:57.125Z,4.15
2022-09-06T11:42:41.166Z,4.04
2022-09-06T11:45:19.367Z,4.14
2022-09-06T11:47:48.587Z,3.99
2022-09-06T11:50:51.567Z,3.98
2022-09-06T11:53:21.781Z,4.00
2022-09-06T11:55:51.707Z,3.80
2022-09-06T11:58:30.268Z,3.94
2022-09-06T12:01:36.009Z,3.83
2022-09-06T12:04:07.968Z,4.52
2022-09-06T12:06:39.068Z,4.32
2022-09-06T12:09:29.866Z,4.08
2022-09-06T12:11:58.846Z,4.64
2022-09-06T12:14:33.847Z,4.79
2022-09-06T12:17:28.007Z,5.06
2022-09-06T12:20:01.105Z,3.93
2022-09-06T12:23:01.446Z,3.88
2022-09-06T12:25:56.427Z,4.77
2022-09-06T12:28:41.128Z,4.16
2022-09-06T12:31:29.374Z,4.05
2022-09-06T12:33:58.347Z,3.78
2022-09-06T12:36:30.573Z,4.33
2022-09-06T12:39:00.014Z,3.89
2022-09-06T12:41:32.347Z,4.53
2022-09-06T12:44:01.530Z,4.45
2022-09-06T12:46:31.805Z,4.33
2022-09-06T12:49:06.050Z,4.15
2022-09-06T12:51:33.627Z,4.16
2022-09-06T12:54:04.085Z,4.49
2022-09-06T12:56:34.333Z,4.50
2022-09-06T12:59:15.714Z,4.26
2022-09-06T13:01:52.604Z,3.83
2022-09-06T13:04:31.147Z,4.26
2022-09-06T13:07:02.836Z,3.96
2022-09-06T13:09:32.965Z,4.23
2022-09-06T13:12:07.247Z,4.65
2022-09-06T13:14:36.668Z,3.97
2022-09-06T13:17:03.867Z,3.75
2022-09-06T13:19:34.527Z,3.81
2022-09-06T13:22:04.009Z,3.88
2022-09-06T13:24:46.791Z,3.64
2022-09-06T13:27:27.551Z,3.71
2022-09-06T13:29:56.569Z,3.49
2022-09-06T13:32:24.448Z,3.92
2022-09-06T13:34:52.227Z,4.04
2022-09-06T13:37:19.569Z,4.30
2022-09-06T13:39:46.807Z,4.55
2022-09-06T13:42:28.200Z,3.65
2022-09-06T13:45:00.074Z,3.65
2022-09-06T13:47:29.805Z,3.54
2022-09-06T13:49:57.026Z,3.73
2022-09-06T13:52:24.125Z,4.21
2022-09-06T13:54:51.345Z,3.66
2022-09-06T13:57:23.982Z,3.15
2022-09-06T13:59:53.112Z,3.50
2022-09-06T14:02:20.446Z,2.80
2022-09-06T14:04:47.624Z,2.96
2022-09-06T14:07:14.986Z,2.72
2022-09-06T14:09:42.106Z,2.78
2022-09-06T14:12:09.485Z,2.74
2022-09-06T14:14:36.690Z,2.50
2022-09-06T14:17:05.242Z,2.89
2022-09-06T14:19:32.365Z,2.72
2022-09-06T14:21:59.526Z,2.49
2022-09-06T14:24:26.634Z,2.44
2022-09-06T14:26:53.829Z,3.43
2022-09-06T14:29:21.070Z,2.12
2022-09-06T14:31:48.207Z,2.13
2022-09-06T14:34:16.986Z,1.96
2022-09-06T14:36:44.209Z,2.04
2022-09-06T14:39:11.475Z,2.58
2022-09-06T14:41:38.607Z,2.68
2022-09-06T14:44:05.749Z,2.52
2022-09-06T14:46:32.906Z,2.82
2022-09-06T14:49:02.373Z,2.57
2022-09-06T14:51:31.244Z,2.42
2022-09-06T14:54:03.247Z,2.50
2022-09-06T14:56:30.605Z,2.35
2022-09-06T14:58:58.984Z,2.58
2022-09-06T15:01:28.309Z,2.36
2022-09-06T15:03:57.525Z,2.66
2022-09-06T15:06:26.787Z,3.01
2022-09-06T15:08:59.386Z,3.66
2022-09-06T15:11:32.504Z,3.59
2022-09-06T15:13:59.605Z,3.46
2022-09-06T15:16:27.647Z,3.17
2022-09-06T15:18:55.364Z,2.96
2022-09-06T15:21:23.866Z,2.95
2022-09-06T15:23:51.545Z,3.20
2022-09-06T15:26:20.450Z,3.00
2022-09-06T15:28:47.645Z,2.59
2022-09-06T15:31:15.509Z,2.53
2022-09-06T15:33:42.749Z,2.80
2022-09-06T15:36:11.506Z,2.59
2022-09-06T15:38:41.387Z,2.54
2022-09-06T15:41:10.531Z,2.79
2022-09-06T15:43:40.984Z,2.19
2022-09-06T15:46:09.094Z,2.36
2022-09-06T15:48:42.147Z,2.10
2022-09-06T15:51:09.646Z,2.48
2022-09-06T15:53:37.148Z,2.19
2022-09-06T15:56:05.085Z,2.12
2022-09-06T15:58:32.905Z,2.02
2022-09-06T16:01:03.705Z,2.17
2022-09-06T16:03:31.006Z,2.08
2022-09-06T16:08:52.866Z,2.23
2022-09-06T16:11:20.525Z,2.24
2022-09-06T16:13:47.646Z,2.03
2022-09-06T16:16:17.266Z,1.87
2022-09-06T16:18:46.286Z,1.97
2022-09-06T16:21:16.747Z,2.06
2022-09-06T16:23:49.200Z,1.88
2022-09-06T16:26:21.271Z,2.32
2022-09-06T16:28:50.775Z,1.62
2022-09-06T16:31:20.752Z,1.82
2022-09-06T16:33:48.992Z,2.02
2022-09-06T16:36:17.524Z,2.18
2022-09-06T16:38:45.627Z,1.85
2022-09-06T16:41:16.687Z,2.19
2022-09-06T16:43:44.425Z,1.93
2022-09-06T16:46:12.262Z,2.19
2022-09-06T16:48:41.570Z,1.93
2022-09-06T16:51:11.066Z,2.09
2022-09-06T16:53:40.744Z,1.91
2022-09-06T16:56:10.344Z,2.01
2022-09-06T16:58:39.805Z,1.78
2022-09-06T17:01:08.047Z,1.98
2022-09-06T17:03:38.866Z,2.28
2022-09-06T17:06:08.811Z,1.95
2022-09-06T17:08:37.468Z,2.00
2022-09-06T17:11:06.642Z,1.70
2022-09-06T17:13:34.327Z,2.06
2022-09-06T17:16:01.692Z,1.96
2022-09-06T17:18:29.832Z,1.95
2022-09-06T17:20:57.287Z,2.10
2022-09-06T17:23:26.688Z,2.01
2022-09-06T17:25:54.209Z,1.95
2022-09-06T17:28:21.807Z,2.15
2022-09-06T17:30:50.013Z,2.40
2022-09-06T17:33:17.289Z,2.07
2022-09-06T17:35:44.807Z,2.12
2022-09-06T17:38:13.208Z,2.39
2022-09-06T17:40:41.889Z,2.01
2022-09-06T17:43:09.469Z,2.37
2022-09-06T17:45:38.248Z,2.03
2022-09-06T17:48:05.476Z,1.95
2022-09-06T17:50:33.189Z,1.81
2022-09-06T17:53:00.389Z,1.84
2022-09-06T17:55:28.267Z,1.78
2022-09-06T17:57:57.309Z,1.91
2022-09-06T18:00:25.188Z,1.66
2022-09-06T18:02:52.930Z,1.90
2022-09-06T18:05:20.125Z,2.29
2022-09-06T18:07:47.370Z,2.44
2022-09-06T18:10:15.270Z,2.10
2022-09-06T18:12:42.468Z,2.36
2022-09-06T18:15:11.336Z,2.26
2022-09-06T18:17:38.469Z,2.31
2022-09-06T18:20:07.230Z,2.49
2022-09-06T18:22:34.451Z,2.33
2022-09-06T18:25:01.531Z,2.73
2022-09-06T18:27:28.638Z,2.50
2022-09-06T18:29:55.752Z,2.56
2022-09-06T18:32:24.350Z,2.56
2022-09-06T18:34:51.467Z,2.42
2022-09-06T18:37:18.570Z,2.59
2022-09-06T18:39:45.754Z,2.29
2022-09-06T18:42:13.097Z,2.40
2022-09-06T18:44:40.229Z,2.69
2022-09-06T18:47:09.227Z,2.25
2022-09-06T18:49:43.264Z,2.37
2022-09-06T18:52:11.307Z,2.49
2022-09-06T18:54:38.408Z,2.53
2022-09-06T18:57:05.548Z,2.81
2022-09-06T18:59:32.687Z,3.52
2022-09-06T19:01:59.874Z,3.42
2022-09-06T19:04:27.114Z,2.95
2022-09-06T19:06:55.667Z,3.14
2022-09-06T19:09:23.029Z,3.04
2022-09-06T19:11:50.147Z,2.54
2022-09-06T19:14:17.268Z,2.85
2022-09-06T19:16:44.440Z,3.07
2022-09-06T19:19:11.670Z,2.79
2022-09-06T19:21:41.963Z,2.38
2022-09-06T19:24:12.299Z,2.21
2022-09-06T19:26:42.457Z,2.18
2022-09-06T19:29:14.167Z,2.15
2022-09-06T19:31:42.569Z,2.53
2022-09-06T19:34:10.349Z,2.64
2022-09-06T19:36:37.488Z,2.54
2022-09-06T19:39:07.286Z,2.47
2022-09-06T19:41:37.977Z,2.53
2022-09-06T19:44:05.993Z,2.30
2022-09-06T19:46:33.794Z,2.55
2022-09-06T19:49:01.090Z,2.74
2022-09-06T19:51:28.171Z,3.07
2022-09-06T19:53:57.509Z,2.73
2022-09-06T19:56:26.581Z,3.04
2022-09-06T19:58:56.828Z,2.74
2022-09-06T20:01:26.082Z,2.75
2022-09-06T20:03:53.811Z,2.68
2022-09-06T20:06:21.349Z,2.18
2022-09-06T20:08:51.189Z,2.23
2022-09-06T20:11:19.888Z,2.48
2022-09-06T20:13:47.008Z,2.43
2022-09-06T20:16:16.374Z,2.69
2022-09-06T20:18:44.448Z,2.80
2022-09-06T20:21:12.309Z,2.39
2022-09-06T20:23:40.387Z,2.19
2022-09-06T20:26:09.589Z,2.46
2022-09-06T20:28:37.208Z,2.44
2022-09-06T20:31:06.518Z,2.46
2022-09-06T20:33:36.088Z,2.49
2022-09-06T20:36:05.328Z,2.33
2022-09-06T20:38:34.752Z,2.61
2022-09-06T20:41:04.288Z,2.49
2022-09-06T20:43:33.189Z,2.54
2022-09-06T20:46:01.189Z,3.12
2022-09-06T20:48:28.437Z,2.70
2022-09-06T20:51:02.387Z,3.12
2022-09-06T20:53:30.407Z,3.24
2022-09-06T20:55:59.518Z,2.80
2022-09-06T20:58:27.500Z,2.79
2022-09-06T21:00:55.069Z,2.85
2022-09-06T21:03:23.044Z,2.74
2022-09-06T21:05:51.268Z,2.78
2022-09-06T21:08:20.007Z,2.51
2022-09-06T21:10:47.208Z,2.69
2022-09-06T21:13:14.453Z,2.65
2022-09-06T21:15:41.650Z,2.68
2022-09-06T21:18:09.448Z,2.98
2022-09-06T21:20:36.878Z,3.46
2022-09-06T21:23:10.729Z,2.95
2022-09-06T21:25:39.767Z,2.61
2022-09-06T21:28:07.011Z,2.73
2022-09-06T21:30:34.156Z,2.63
2022-09-06T21:33:01.271Z,2.86
2022-09-06T21:35:28.450Z,2.76
2022-09-06T21:37:55.637Z,2.93
2022-09-06T21:40:22.943Z,2.88
2022-09-06T21:42:51.568Z,2.91
2022-09-06T21:45:18.706Z,3.11
2022-09-06T21:47:45.808Z,3.30
2022-09-06T21:50:12.932Z,3.25
2022-09-06T21:52:40.127Z,2.89
2022-09-06T21:55:11.289Z,3.33
2022-09-06T21:57:40.689Z,3.15
2022-09-06T22:00:10.707Z,3.27
2022-09-06T22:02:37.847Z,3.14
2022-09-06T22:05:05.667Z,3.22
2022-09-06T22:07:32.889Z,3.12
2022-09-06T22:10:00.057Z,3.34
2022-09-06T22:12:27.296Z,3.17
2022-09-06T22:14:54.389Z,3.20
2022-09-06T22:17:22.971Z,3.12
2022-09-06T22:19:50.048Z,3.02
2022-09-06T22:22:17.195Z,3.18
2022-09-06T22:24:44.186Z,3.16
2022-09-06T22:27:11.273Z,3.12
2022-09-06T22:29:38.349Z,3.25
2022-09-06T22:32:05.668Z,3.36
2022-09-06T22:34:34.229Z,3.09
2022-09-06T22:37:01.388Z,3.03
2022-09-06T22:39:28.837Z,3.07
2022-09-06T22:41:56.053Z,3.02
2022-09-06T22:44:23.167Z,3.08
2022-09-06T22:46:50.305Z,2.57
2022-09-06T22:49:17.367Z,3.09
2022-09-06T22:51:45.868Z,3.47
2022-09-06T22:54:12.988Z,2.73
2022-09-06T22:56:40.146Z,2.96
2022-09-06T22:59:07.727Z,2.52
2022-09-06T23:01:35.506Z,2.98
2022-09-06T23:04:03.149Z,2.74
2022-09-06T23:06:30.208Z,2.66
2022-09-06T23:08:59.048Z,3.08
2022-09-06T23:11:26.147Z,2.85
2022-09-06T23:13:56.147Z,2.85
2022-09-06T23:16:23.997Z,2.70
2022-09-06T23:18:51.228Z,2.83
2022-09-06T23:21:21.548Z,2.76
2022-09-06T23:23:50.909Z,2.83
2022-09-06T23:26:21.506Z,2.65
2022-09-06T23:28:50.708Z,2.89
2022-09-06T23:31:18.612Z,2.80
2022-09-06T23:33:47.067Z,3.14
2022-09-06T23:36:14.266Z,2.76
2022-09-06T23:38:43.008Z,2.81
2022-09-06T23:41:10.794Z,2.78
2022-09-06T23:43:41.547Z,2.47
2022-09-06T23:46:10.256Z,2.68
2022-09-06T23:48:37.687Z,2.70
2022-09-06T23:51:05.832Z,2.66
2022-09-06T23:53:33.587Z,2.46
2022-09-06T23:56:00.707Z,2.98
2022-09-06T23:58:27.987Z,2.59
